DSTT2: Red River at Denison Dam nr Denison, TX

Data processed at Wed May 22 2019 23:50


All information presented herein is the property of the government of the United States of America and may be revised or deleted at any time without prior notice.
Dissemination of this information without the expressed written consent of the Public Affairs Office, Tulsa District U.S. Army Corps of Engineers is strictly prohibited.
These data are gathered electronically and, as presented, have not undergone any form of quality control. These data are not guaranteed to be valid or correct.
Go to home page.
Go to station list.
Go to home page.

Upstream stations:

Downstream station:
Previous Day
Next Day
Current Day
    
SHEF ID:       DSTT2     Red River at Denison Dam nr Deni
STATION TYPE:  

               PRECIP     STAGE  RIV-FLOW  BAT-LOAD
                   in        ft       cfs      volt
              Ccp-Rev   Ccp-Rev   Ccp-Rev   Ccp-Rev
(US/Central)
05/22 00:00      0.00     14.95     30369     12.97
05/22 01:00      0.00     14.88     30043     12.97
05/22 02:00      0.00     14.88     30043     12.97
05/22 03:00      0.00     14.94     30323     12.89
05/22 04:00      0.00     14.89     30089     12.89
05/22 05:00      0.00     14.91     30182     12.89
05/22 06:00      0.00     14.94     30323     12.89
05/22 07:00      0.00     14.92     30229     12.89
05/22 08:00      0.00     14.93     30276     12.89
05/22 09:00      0.00     14.86     29949     12.97
05/22 10:00      0.00     15.00     30604     13.13
05/22 11:00      0.00     14.88     30043     13.60
05/22 12:00      0.00     14.95     30369     13.60
05/22 13:00      0.00     14.81     29717     13.60
05/22 14:00      0.00     14.96     30416     13.68
05/22 15:00      0.00     14.91     30182     13.68
05/22 16:00      0.00     14.79     29623     13.68
05/22 17:00      0.00     14.95     30369     13.60
05/22 18:00      0.00     14.91     30182     13.53
05/22 19:00      0.00     14.95     30369     13.53
05/22 20:00      0.00     14.92     30229     13.29
05/22 21:00      0.00     14.90     30136     13.05
05/22 22:00      0.00     14.89     30089     13.05
05/22 23:00      0.00     14.89     30089     13.05